Shady Nook, Indiana
Current Conditions -  °F | °C
As of 6:15 AM on Friday 19 Dec 2014 (Local Time) from KANQ Reporting Station
Overcast Overcast  
Wind Chill: 21°   Ceiling: 800
Heat Index: 27°   Visibility: 7mi
Dew Point: 25°   Wind: 5mph
Humidity: 93%   Direction: 270°W
Pressure: 30.21"   Gusts: NA
Location:  41.5677°N, 85.3125°W
Report Text: KANQ 191115Z AUTO 27004KT 7SM BKN008 OVC027 M03/M04 A3021 RMK
Loading
Personal Weather Stations






























Interactive Weather Map New forecast layout! Learn more

10-Day Weather Forecast

Advertisements
Track Severe Weather on mobile